createdAt,value
2019-02-15T00:00:30.797Z,1.15
2019-02-15T00:02:34.989Z,1.12
2019-02-15T00:03:35.197Z,1.22
2019-02-15T00:05:39.433Z,0.88
2019-02-15T00:06:39.584Z,1.11
2019-02-15T00:08:44.797Z,1.18
2019-02-15T00:09:44.990Z,1.12
2019-02-15T00:11:49.177Z,1.16
2019-02-15T00:12:49.382Z,1.05
2019-02-15T00:14:54.553Z,1.09
2019-02-15T00:15:54.768Z,1.00
2019-02-15T00:17:47.872Z,1.11
2019-02-15T00:18:48.104Z,1.18
2019-02-15T00:20:52.243Z,1.14
2019-02-15T00:21:52.518Z,1.18
2019-02-15T00:23:56.635Z,1.24
2019-02-15T00:24:56.865Z,1.12
2019-02-15T00:27:02.037Z,1.08
2019-02-15T00:28:02.265Z,1.05
2019-02-15T00:30:06.409Z,1.15
2019-02-15T00:31:06.643Z,1.32
2019-02-15T00:33:10.809Z,1.32
2019-02-15T00:34:11.050Z,1.20
2019-02-15T00:36:15.191Z,1.30
2019-02-15T00:37:15.496Z,1.32
2019-02-15T00:39:19.591Z,1.12
2019-02-15T00:40:19.811Z,1.16
2019-02-15T00:42:24.000Z,1.06
2019-02-15T00:43:24.212Z,1.04
2019-02-15T00:45:29.368Z,1.02
2019-02-15T00:46:29.604Z,0.90
2019-02-15T00:48:34.790Z,0.96
2019-02-15T00:49:35.044Z,0.93
2019-02-15T00:51:39.177Z,0.93
2019-02-15T00:52:39.401Z,0.93
2019-02-15T00:54:43.574Z,0.87
2019-02-15T00:55:43.806Z,0.80
2019-02-15T00:57:36.898Z,0.93
2019-02-15T00:58:37.105Z,0.80
2019-02-15T01:00:42.286Z,0.66
2019-02-15T01:01:42.521Z,0.49
2019-02-15T01:03:46.714Z,0.35
2019-02-15T01:04:46.966Z,0.31
2019-02-15T01:06:51.102Z,0.18
2019-02-15T01:07:51.332Z,0.11
2019-02-15T01:09:55.512Z,0.15
2019-02-15T01:10:55.797Z,0.11
2019-02-15T01:12:59.916Z,0.10
2019-02-15T01:14:00.138Z,0.11
2019-02-15T01:16:05.316Z,0.20
2019-02-15T01:17:05.542Z,0.29
2019-02-15T01:19:09.721Z,0.44
2019-02-15T01:20:09.960Z,0.58
2019-02-15T01:22:14.198Z,0.50
2019-02-15T01:23:14.337Z,0.62
2019-02-15T01:25:18.523Z,0.62
2019-02-15T01:26:18.746Z,0.60
2019-02-15T01:28:23.590Z,0.47
2019-02-15T01:29:23.598Z,0.55
2019-02-15T01:31:27.775Z,0.55
2019-02-15T01:32:28.007Z,0.60
2019-02-15T01:34:32.173Z,0.68
2019-02-15T01:35:32.388Z,0.60
2019-02-15T01:37:26.476Z,0.55
2019-02-15T01:38:26.712Z,0.66
2019-02-15T01:40:31.892Z,0.91
2019-02-15T01:41:32.162Z,0.97
2019-02-15T01:43:40.131Z,0.97
2019-02-15T01:44:36.530Z,0.93
2019-02-15T01:46:40.683Z,0.86
2019-02-15T01:47:40.924Z,0.88
2019-02-15T01:49:45.071Z,0.78
2019-02-15T01:50:45.313Z,0.62
2019-02-15T01:52:49.465Z,0.55
2019-02-15T01:53:49.702Z,0.42
2019-02-15T01:55:54.885Z,0.65
2019-02-15T01:56:55.116Z,0.66
2019-02-15T01:58:59.294Z,0.51
2019-02-15T01:59:59.526Z,0.47
2019-02-15T02:02:03.677Z,0.33
2019-02-15T02:03:03.950Z,0.24
2019-02-15T02:05:08.081Z,0.08
2019-02-15T02:06:08.334Z,0.00
2019-02-15T02:08:12.470Z,-0.07
2019-02-15T02:09:12.693Z,-0.03
2019-02-15T02:11:16.859Z,-0.22
2019-02-15T02:12:17.113Z,-0.21
2019-02-15T02:14:21.268Z,-0.23
2019-02-15T02:15:21.503Z,-0.29
2019-02-15T02:17:14.575Z,-0.37
2019-02-15T02:18:14.821Z,-0.42
2019-02-15T02:20:18.972Z,-0.46
2019-02-15T02:21:19.209Z,-0.52
2019-02-15T02:23:23.359Z,-0.43
2019-02-15T02:24:23.609Z,-0.37
2019-02-15T02:26:27.755Z,-0.40
2019-02-15T02:27:28.001Z,-0.51
2019-02-15T02:29:32.135Z,-0.57
2019-02-15T02:30:32.385Z,-0.55
2019-02-15T02:32:36.542Z,-0.34
2019-02-15T02:33:36.764Z,-0.33
2019-02-15T02:35:40.935Z,-0.16
2019-02-15T02:36:41.176Z,-0.05
2019-02-15T02:38:45.359Z,-0.19
2019-02-15T02:39:45.552Z,-0.22
2019-02-15T02:41:49.729Z,-0.33
2019-02-15T02:42:49.952Z,-0.31
2019-02-15T02:44:54.124Z,-0.34
2019-02-15T02:45:54.384Z,-0.28
2019-02-15T02:47:47.423Z,-0.22
2019-02-15T02:48:47.658Z,-0.07
2019-02-15T02:50:51.822Z,0.02
2019-02-15T02:51:52.064Z,-0.11
2019-02-15T02:53:56.207Z,-0.08
2019-02-15T02:54:56.441Z,-0.10
2019-02-15T02:57:00.615Z,0.13
2019-02-15T02:58:00.840Z,0.10
2019-02-15T03:00:05.026Z,0.24
2019-02-15T03:01:05.241Z,0.11
2019-02-15T03:03:09.413Z,0.14
2019-02-15T03:04:09.710Z,0.24
2019-02-15T03:06:13.826Z,0.38
2019-02-15T03:07:14.051Z,0.39
2019-02-15T03:09:18.195Z,0.41
2019-02-15T03:10:18.430Z,0.41
2019-02-15T03:12:22.600Z,0.32
2019-02-15T03:13:22.820Z,0.39
2019-02-15T03:15:28.002Z,0.31
2019-02-15T03:16:28.246Z,0.21
2019-02-15T03:18:32.390Z,0.24
2019-02-15T03:19:32.645Z,0.29
2019-02-15T03:21:36.786Z,0.18
2019-02-15T03:22:37.030Z,0.21
2019-02-15T03:24:41.177Z,0.29
2019-02-15T03:25:41.401Z,0.17
2019-02-15T03:27:34.489Z,0.13
2019-02-15T03:28:34.717Z,0.10
2019-02-15T03:30:39.891Z,-0.08
2019-02-15T03:31:40.144Z,-0.08
2019-02-15T03:33:44.277Z,0.00
2019-02-15T03:34:44.511Z,-0.04
2019-02-15T03:36:48.701Z,-0.04
2019-02-15T03:37:48.896Z,-0.10
2019-02-15T03:39:53.040Z,-0.08
2019-02-15T03:40:53.268Z,-0.19
2019-02-15T03:42:57.446Z,-0.15
2019-02-15T03:43:57.676Z,-0.04
2019-02-15T03:46:01.847Z,0.17
2019-02-15T03:47:02.069Z,0.32
2019-02-15T03:49:06.212Z,0.35
2019-02-15T03:50:06.446Z,0.28
2019-02-15T03:52:10.618Z,0.14
2019-02-15T03:53:10.864Z,-0.01
2019-02-15T03:55:14.984Z,-0.05
2019-02-15T03:56:15.208Z,-0.07
2019-02-15T03:58:19.379Z,-0.05
2019-02-15T03:59:19.611Z,-0.15
2019-02-15T04:01:23.781Z,-0.14
2019-02-15T04:02:24.013Z,0.11
2019-02-15T04:04:28.164Z,-0.01
2019-02-15T04:05:28.381Z,0.04
2019-02-15T04:07:21.487Z,0.03
2019-02-15T04:08:21.698Z,-0.03
2019-02-15T04:10:25.849Z,-0.05
2019-02-15T04:11:26.117Z,0.02
2019-02-15T04:13:30.242Z,-0.04
2019-02-15T04:14:32.963Z,0.08
2019-02-15T04:16:34.650Z,0.04
2019-02-15T04:17:34.881Z,0.08
2019-02-15T04:19:39.038Z,-0.05
2019-02-15T04:20:39.244Z,0.03
2019-02-15T04:22:43.463Z,-0.18
2019-02-15T04:23:43.663Z,-0.07
2019-02-15T04:25:47.801Z,-0.22
2019-02-15T04:26:48.039Z,-0.36
2019-02-15T04:28:52.199Z,-0.26
2019-02-15T04:29:52.453Z,-0.22
2019-02-15T04:31:56.623Z,-0.18
2019-02-15T04:32:56.816Z,-0.21
2019-02-15T04:35:00.956Z,-0.28
2019-02-15T04:36:01.188Z,-0.29
2019-02-15T04:37:54.286Z,-0.40
2019-02-15T04:38:54.523Z,-0.42
2019-02-15T04:40:58.671Z,-0.49
2019-02-15T04:41:58.892Z,-0.49
2019-02-15T04:44:03.058Z,-0.54
2019-02-15T04:45:03.288Z,-0.52
2019-02-15T04:47:07.463Z,-0.40
2019-02-15T04:48:07.735Z,-0.43
2019-02-15T04:50:11.829Z,-0.23
2019-02-15T04:51:12.054Z,-0.28
2019-02-15T04:53:16.248Z,-0.26
2019-02-15T04:54:16.446Z,-0.39
2019-02-15T04:56:20.598Z,-0.42
2019-02-15T04:57:20.817Z,-0.36
2019-02-15T04:59:24.980Z,-0.47
2019-02-15T05:00:25.215Z,-0.54
2019-02-15T05:02:29.398Z,-0.67
2019-02-15T05:03:29.648Z,-0.75
2019-02-15T05:05:33.755Z,-0.58
2019-02-15T05:06:33.982Z,-0.58
2019-02-15T05:08:38.643Z,-0.47
2019-02-15T05:09:38.902Z,-0.28
2019-02-15T05:11:43.043Z,-0.19
2019-02-15T05:12:43.272Z,-0.05
2019-02-15T05:14:53.150Z,-0.05
2019-02-15T05:15:48.718Z,-0.14
2019-02-15T05:17:42.795Z,-0.05
2019-02-15T05:18:43.015Z,-0.15
2019-02-15T05:20:47.164Z,-0.07
2019-02-15T05:21:47.389Z,-0.16
2019-02-15T05:23:51.583Z,-0.05
2019-02-15T05:24:51.782Z,-0.07
2019-02-15T05:26:55.938Z,0.03
2019-02-15T05:27:56.153Z,0.04
2019-02-15T05:30:00.402Z,0.14
2019-02-15T05:31:00.561Z,0.13
2019-02-15T05:33:04.743Z,0.31
2019-02-15T05:34:04.990Z,0.29
2019-02-15T05:36:09.100Z,0.24
2019-02-15T05:37:09.335Z,0.29
2019-02-15T05:39:13.485Z,0.33
2019-02-15T05:40:13.724Z,0.36
2019-02-15T05:42:17.861Z,0.36
2019-02-15T05:43:18.096Z,0.39
2019-02-15T05:45:22.254Z,0.60
2019-02-15T05:46:22.486Z,0.50
2019-02-15T05:48:26.650Z,0.47
2019-02-15T05:49:26.880Z,0.47
2019-02-15T05:51:31.029Z,0.24
2019-02-15T05:52:31.263Z,0.20
2019-02-15T05:54:35.426Z,0.11
2019-02-15T05:55:35.658Z,0.04
2019-02-15T05:57:28.772Z,-0.15
2019-02-15T05:58:28.966Z,-0.23
2019-02-15T06:00:36.988Z,-0.44
2019-02-15T06:01:33.357Z,-0.47
2019-02-15T06:03:37.501Z,-0.58
2019-02-15T06:04:37.728Z,-0.69
2019-02-15T06:06:41.890Z,-0.54
2019-02-15T06:07:42.117Z,-0.62
2019-02-15T06:09:46.292Z,-0.70
2019-02-15T06:10:46.537Z,-0.65
2019-02-15T06:12:50.671Z,-0.70
2019-02-15T06:13:50.908Z,-0.83
2019-02-15T06:15:55.082Z,-0.94
2019-02-15T06:16:55.318Z,-0.97
2019-02-15T06:18:59.502Z,-1.15
2019-02-15T06:19:59.739Z,-1.12
2019-02-15T06:22:03.892Z,-1.27
2019-02-15T06:23:04.122Z,-1.46
2019-02-15T06:25:08.291Z,-1.33
2019-02-15T06:26:08.524Z,-0.85
2019-02-15T06:28:12.673Z,-0.57
2019-02-15T06:29:12.903Z,-0.42
2019-02-15T06:31:17.576Z,-0.47
2019-02-15T06:32:17.814Z,-0.52
2019-02-15T06:34:21.987Z,-0.67
2019-02-15T06:35:22.242Z,-0.89
2019-02-15T06:37:15.791Z,-0.97
2019-02-15T06:38:16.022Z,-0.99
2019-02-15T06:40:20.190Z,-0.99
2019-02-15T06:41:20.431Z,-0.91
2019-02-15T06:43:24.575Z,-0.61
2019-02-15T06:44:24.811Z,-0.44
2019-02-15T06:46:28.979Z,-0.47
2019-02-15T06:47:29.212Z,-0.60
2019-02-15T06:49:33.351Z,-0.52
2019-02-15T06:50:33.588Z,-0.08
2019-02-15T06:52:37.750Z,0.86
2019-02-15T06:53:37.986Z,1.36
2019-02-15T06:55:42.147Z,2.46
2019-02-15T06:56:42.379Z,2.81
2019-02-15T06:58:46.520Z,3.24
2019-02-15T06:59:46.752Z,3.84
2019-02-15T07:01:50.919Z,4.58
2019-02-15T07:02:51.169Z,5.02
2019-02-15T07:04:55.299Z,5.67
2019-02-15T07:05:55.528Z,6.01
2019-02-15T07:07:48.621Z,6.40
2019-02-15T07:08:48.855Z,6.55
2019-02-15T07:10:53.023Z,7.07
2019-02-15T07:11:53.297Z,7.30
2019-02-15T07:13:57.410Z,7.49
2019-02-15T07:14:57.642Z,7.68
2019-02-15T07:17:01.813Z,8.01
2019-02-15T07:18:02.048Z,8.00
2019-02-15T07:20:06.193Z,8.40
2019-02-15T07:21:06.433Z,8.61
2019-02-15T07:23:10.599Z,8.91
2019-02-15T07:24:10.835Z,9.17
2019-02-15T07:26:15.009Z,9.17
2019-02-15T07:27:15.241Z,9.26
2019-02-15T07:29:19.394Z,9.50
2019-02-15T07:30:19.631Z,9.65
2019-02-15T07:32:23.802Z,9.13
2019-02-15T07:33:24.047Z,9.17
2019-02-15T07:35:28.189Z,9.46
2019-02-15T07:36:28.425Z,9.31
2019-02-15T07:38:32.597Z,8.79
2019-02-15T07:39:32.841Z,9.23
2019-02-15T07:41:37.018Z,9.69
2019-02-15T07:42:37.257Z,10.04
2019-02-15T07:44:41.414Z,10.74
2019-02-15T07:45:43.101Z,10.78
2019-02-15T07:47:34.763Z,10.59
2019-02-15T07:48:35.001Z,10.15
2019-02-15T07:50:39.155Z,9.54
2019-02-15T07:51:39.454Z,8.79
2019-02-15T07:53:43.580Z,7.37
2019-02-15T07:54:43.866Z,7.98
2019-02-15T07:56:48.049Z,8.63
2019-02-15T07:57:48.235Z,9.20
2019-02-15T07:59:52.400Z,10.48
2019-02-15T08:00:52.643Z,10.94
2019-02-15T08:02:56.824Z,11.27
2019-02-15T08:03:57.072Z,11.29
2019-02-15T08:06:01.225Z,10.34
2019-02-15T08:07:01.466Z,9.48
2019-02-15T08:09:05.731Z,9.65
2019-02-15T08:10:05.971Z,10.42
2019-02-15T08:12:10.138Z,12.28
2019-02-15T08:13:10.381Z,13.01
2019-02-15T08:15:14.543Z,14.00
2019-02-15T08:16:14.788Z,14.37
2019-02-15T08:18:18.969Z,14.99
2019-02-15T08:19:21.202Z,15.31
2019-02-15T08:21:23.375Z,15.38
2019-02-15T08:22:23.624Z,15.46
2019-02-15T08:24:27.803Z,15.36
2019-02-15T08:25:28.048Z,15.20
2019-02-15T08:27:21.161Z,12.37
2019-02-15T08:28:21.406Z,12.68
2019-02-15T08:30:25.625Z,11.60
2019-02-15T08:31:25.818Z,12.14
2019-02-15T08:33:30.008Z,11.24
2019-02-15T08:34:30.254Z,10.86
2019-02-15T08:36:34.418Z,10.91
2019-02-15T08:37:34.662Z,11.91
2019-02-15T08:39:38.853Z,12.49
2019-02-15T08:40:39.095Z,13.01
2019-02-15T08:42:43.283Z,12.64
2019-02-15T08:43:43.532Z,12.56
2019-02-15T08:45:47.700Z,13.55
2019-02-15T08:46:48.085Z,14.28
2019-02-15T08:48:52.134Z,15.69
2019-02-15T08:49:52.380Z,16.08
2019-02-15T08:51:56.562Z,16.75
2019-02-15T08:52:56.798Z,17.04
2019-02-15T08:55:00.993Z,17.78
2019-02-15T08:56:01.241Z,18.17
2019-02-15T08:57:54.365Z,18.32
2019-02-15T08:58:54.614Z,18.60
2019-02-15T09:00:58.788Z,18.81
2019-02-15T09:01:59.036Z,18.62
2019-02-15T09:04:03.237Z,19.22
2019-02-15T09:05:03.483Z,18.88
2019-02-15T09:07:07.655Z,18.65
2019-02-15T09:08:07.905Z,18.72
2019-02-15T09:10:12.113Z,19.21
2019-02-15T09:11:12.351Z,18.94
2019-02-15T09:13:16.560Z,19.13
2019-02-15T09:14:16.812Z,19.25
2019-02-15T09:16:20.990Z,18.08
2019-02-15T09:17:21.241Z,17.74
2019-02-15T09:19:25.441Z,17.71
2019-02-15T09:20:25.692Z,17.66
2019-02-15T09:22:29.874Z,17.78
2019-02-15T09:23:30.124Z,17.07
2019-02-15T09:25:34.324Z,16.28
2019-02-15T09:26:34.574Z,15.54
2019-02-15T09:28:38.774Z,16.31
2019-02-15T09:29:39.026Z,15.51
2019-02-15T09:31:43.206Z,17.18
2019-02-15T09:32:43.523Z,17.58
2019-02-15T09:34:47.658Z,18.03
2019-02-15T09:35:48.091Z,16.96
2019-02-15T09:37:41.021Z,16.50
2019-02-15T09:38:41.276Z,17.01
2019-02-15T09:40:45.477Z,17.72
2019-02-15T09:41:45.730Z,17.82
2019-02-15T09:43:49.927Z,18.18
2019-02-15T09:44:50.179Z,18.78
2019-02-15T09:46:54.357Z,16.41
2019-02-15T09:47:54.607Z,17.41
2019-02-15T09:49:58.809Z,17.48
2019-02-15T09:50:59.060Z,17.18
2019-02-15T09:53:03.238Z,17.99
2019-02-15T09:54:03.494Z,17.82
2019-02-15T09:56:07.696Z,17.74
2019-02-15T09:57:07.949Z,17.93
2019-02-15T09:59:12.152Z,19.40
2019-02-15T10:00:12.404Z,20.13
2019-02-15T10:02:16.584Z,20.43
2019-02-15T10:03:16.835Z,19.83
2019-02-15T10:05:21.039Z,20.11
2019-02-15T10:06:21.295Z,20.54
2019-02-15T10:08:25.475Z,20.95
2019-02-15T10:09:25.727Z,20.55
2019-02-15T10:11:29.931Z,20.94
2019-02-15T10:12:30.185Z,20.67
2019-02-15T10:14:34.387Z,20.94
2019-02-15T10:15:34.640Z,20.82
2019-02-15T10:17:27.763Z,20.84
2019-02-15T10:18:28.004Z,20.94
2019-02-15T10:20:32.210Z,20.88
2019-02-15T10:21:32.464Z,20.94
2019-02-15T10:23:36.665Z,20.10
2019-02-15T10:24:36.905Z,20.17
2019-02-15T10:26:41.124Z,18.76
2019-02-15T10:27:41.380Z,20.02
2019-02-15T10:29:45.586Z,20.38
2019-02-15T10:30:45.838Z,21.06
2019-02-15T10:32:50.023Z,21.47
2019-02-15T10:33:50.278Z,21.77
2019-02-15T10:35:54.483Z,21.82
2019-02-15T10:36:54.741Z,21.13
2019-02-15T10:38:58.926Z,21.83
2019-02-15T10:39:59.177Z,21.88
2019-02-15T10:42:03.385Z,21.83
2019-02-15T10:43:03.643Z,21.92
2019-02-15T10:45:07.848Z,22.10
2019-02-15T10:46:08.112Z,22.27
2019-02-15T10:48:12.298Z,22.37
2019-02-15T10:49:12.545Z,22.70
2019-02-15T10:51:16.753Z,21.86
2019-02-15T10:52:17.009Z,21.84
2019-02-15T10:54:21.199Z,22.09
2019-02-15T10:55:21.456Z,22.91
2019-02-15T10:57:14.588Z,22.83
2019-02-15T10:58:14.845Z,22.25
2019-02-15T11:00:19.033Z,21.83
2019-02-15T11:01:19.287Z,22.21
2019-02-15T11:03:23.497Z,23.00
2019-02-15T11:04:23.754Z,23.22
2019-02-15T11:06:27.967Z,23.84
2019-02-15T11:07:28.220Z,23.47
2019-02-15T11:09:32.407Z,22.98
2019-02-15T11:10:32.664Z,22.91
2019-02-15T11:12:36.874Z,23.13
2019-02-15T11:13:37.130Z,22.98
2019-02-15T11:15:41.344Z,23.73
2019-02-15T11:16:47.371Z,23.91
2019-02-15T11:18:45.793Z,24.60
2019-02-15T11:19:46.048Z,24.73
2019-02-15T11:21:50.260Z,24.22
2019-02-15T11:22:50.563Z,24.13
2019-02-15T11:24:54.705Z,24.60
2019-02-15T11:25:54.962Z,24.95
2019-02-15T11:27:48.307Z,25.05
2019-02-15T11:28:48.330Z,25.23
2019-02-15T11:30:42.703Z,24.73
2019-02-15T11:31:43.016Z,24.90
2019-02-15T11:33:47.326Z,24.50
2019-02-15T11:34:47.617Z,24.34
2019-02-15T11:36:51.808Z,24.18
2019-02-15T11:37:52.123Z,24.65
2019-02-15T11:39:56.335Z,24.64
2019-02-15T11:40:56.595Z,24.60
2019-02-15T11:43:00.950Z,24.27
2019-02-15T11:44:01.210Z,24.09
2019-02-15T11:46:05.410Z,24.31
2019-02-15T11:47:05.660Z,24.62
2019-02-15T11:49:09.868Z,23.46
2019-02-15T11:50:10.126Z,23.68
2019-02-15T11:52:14.315Z,24.25
2019-02-15T11:53:14.574Z,24.91
2019-02-15T11:55:18.796Z,25.82
2019-02-15T11:56:19.038Z,25.95
2019-02-15T11:58:23.246Z,25.77
2019-02-15T11:59:23.542Z,26.23
2019-02-15T12:01:27.735Z,26.39
2019-02-15T12:02:28.041Z,25.99
2019-02-15T12:04:32.286Z,26.23
2019-02-15T12:05:32.542Z,26.15
2019-02-15T12:07:25.661Z,25.98
2019-02-15T12:08:25.982Z,25.54
2019-02-15T12:10:30.217Z,24.83
2019-02-15T12:11:30.545Z,23.16
2019-02-15T12:13:34.772Z,24.34
2019-02-15T12:14:35.068Z,24.31
2019-02-15T12:16:39.267Z,24.43
2019-02-15T12:17:39.523Z,24.73
2019-02-15T12:19:43.865Z,25.72
2019-02-15T12:20:44.117Z,26.05
2019-02-15T12:22:48.337Z,25.40
2019-02-15T12:23:48.651Z,25.60
2019-02-15T12:25:52.885Z,25.75
2019-02-15T12:26:53.187Z,25.67
2019-02-15T12:28:57.468Z,26.09
2019-02-15T12:29:57.764Z,26.02
2019-02-15T12:32:01.958Z,26.30
2019-02-15T12:33:02.207Z,26.13
2019-02-15T12:35:06.425Z,27.62
2019-02-15T12:36:06.683Z,27.72
2019-02-15T12:38:10.960Z,27.36
2019-02-15T12:39:13.751Z,27.97
2019-02-15T12:41:15.439Z,27.99
2019-02-15T12:42:15.760Z,26.58
2019-02-15T12:44:20.037Z,25.23
2019-02-15T12:45:20.294Z,25.64
2019-02-15T12:47:15.296Z,23.73
2019-02-15T12:48:13.697Z,22.98
2019-02-15T12:50:17.971Z,23.47
2019-02-15T12:51:18.286Z,24.20
2019-02-15T12:53:22.502Z,25.27
2019-02-15T12:54:22.792Z,26.39
2019-02-15T12:56:27.116Z,26.44
2019-02-15T12:57:27.424Z,26.50
2019-02-15T12:59:31.627Z,27.47
2019-02-15T13:00:33.242Z,27.25
2019-02-15T13:02:36.116Z,25.14
2019-02-15T13:03:36.395Z,23.36
2019-02-15T13:05:40.610Z,23.65
2019-02-15T13:06:42.932Z,24.15
2019-02-15T13:08:45.078Z,25.14
2019-02-15T13:09:45.334Z,24.35
2019-02-15T13:11:49.602Z,25.28
2019-02-15T13:12:49.855Z,23.38
2019-02-15T13:14:54.091Z,20.11
2019-02-15T13:15:54.387Z,20.42
2019-02-15T13:17:47.525Z,19.78
2019-02-15T13:18:47.776Z,19.54
2019-02-15T13:20:51.989Z,21.03
2019-02-15T13:21:52.243Z,19.68
2019-02-15T13:23:56.429Z,20.69
2019-02-15T13:24:56.685Z,22.00
2019-02-15T13:27:00.892Z,22.91
2019-02-15T13:28:01.206Z,22.03
2019-02-15T13:30:05.334Z,21.17
2019-02-15T13:31:05.586Z,20.66
2019-02-15T13:33:09.796Z,21.24
2019-02-15T13:34:10.091Z,20.52
2019-02-15T13:36:14.235Z,20.51
2019-02-15T13:37:14.493Z,20.74
2019-02-15T13:39:18.700Z,20.48
2019-02-15T13:40:18.958Z,20.57
2019-02-15T13:42:23.163Z,20.52
2019-02-15T13:43:23.417Z,20.02
2019-02-15T13:45:29.450Z,20.08
2019-02-15T13:46:27.856Z,20.05
2019-02-15T13:48:32.068Z,20.47
2019-02-15T13:49:32.319Z,20.38
2019-02-15T13:51:36.504Z,22.67
2019-02-15T13:52:36.755Z,21.59
2019-02-15T13:54:40.958Z,22.30
2019-02-15T13:55:41.210Z,23.63
2019-02-15T13:57:34.353Z,24.15
2019-02-15T13:58:34.601Z,23.63
2019-02-15T14:00:38.784Z,22.37
2019-02-15T14:01:39.038Z,22.24
2019-02-15T14:03:43.244Z,20.94
2019-02-15T14:04:43.502Z,21.98
2019-02-15T14:06:47.682Z,22.27
2019-02-15T14:07:48.071Z,21.56
2019-02-15T14:09:52.142Z,20.11
2019-02-15T14:10:52.396Z,20.43
2019-02-15T14:12:56.606Z,19.86
2019-02-15T14:13:56.859Z,19.68
2019-02-15T14:16:01.046Z,19.63
2019-02-15T14:17:01.301Z,19.68
2019-02-15T14:19:05.507Z,19.80
2019-02-15T14:20:05.763Z,20.23
2019-02-15T14:22:09.940Z,19.76
2019-02-15T14:23:10.195Z,19.74
2019-02-15T14:25:14.402Z,20.41
2019-02-15T14:26:14.653Z,20.57
2019-02-15T14:28:18.860Z,21.21
2019-02-15T14:29:19.112Z,20.59
2019-02-15T14:31:23.296Z,19.95
2019-02-15T14:32:23.545Z,19.74
2019-02-15T14:34:27.749Z,19.77
2019-02-15T14:35:27.996Z,19.58
2019-02-15T14:37:21.108Z,20.08
2019-02-15T14:38:21.361Z,20.16
2019-02-15T14:40:25.584Z,19.47
2019-02-15T14:41:25.810Z,19.55
2019-02-15T14:43:29.993Z,20.98
2019-02-15T14:44:30.243Z,20.62
2019-02-15T14:46:34.440Z,21.17
2019-02-15T14:47:34.689Z,21.27
2019-02-15T14:49:38.890Z,20.20
2019-02-15T14:50:39.146Z,19.56
2019-02-15T14:52:43.324Z,19.40
2019-02-15T14:53:43.575Z,19.10
2019-02-15T14:55:47.776Z,18.92
2019-02-15T14:56:48.029Z,19.02
2019-02-15T14:58:52.209Z,19.22
2019-02-15T14:59:52.457Z,19.44
2019-02-15T15:01:56.658Z,19.81
2019-02-15T15:02:56.909Z,19.81
2019-02-15T15:05:01.121Z,20.21
2019-02-15T15:06:01.372Z,20.03
2019-02-15T15:07:54.480Z,20.11
2019-02-15T15:08:54.731Z,20.03
2019-02-15T15:10:58.930Z,20.06
2019-02-15T15:11:59.182Z,20.08
2019-02-15T15:14:04.381Z,20.20
2019-02-15T15:15:04.634Z,20.10
2019-02-15T15:17:08.837Z,20.67
2019-02-15T15:18:13.272Z,20.38
2019-02-15T15:20:13.293Z,21.13
2019-02-15T15:21:13.545Z,21.21
2019-02-15T15:23:17.719Z,21.34
2019-02-15T15:24:17.970Z,21.27
2019-02-15T15:26:22.173Z,21.10
2019-02-15T15:27:22.424Z,21.29
2019-02-15T15:29:26.598Z,21.44
2019-02-15T15:30:26.850Z,21.50
2019-02-15T15:32:31.053Z,21.04
2019-02-15T15:33:31.307Z,21.01
2019-02-15T15:35:35.500Z,20.33
2019-02-15T15:36:35.754Z,20.24
2019-02-15T15:38:39.942Z,20.13
2019-02-15T15:39:40.194Z,20.23
2019-02-15T15:41:44.395Z,20.18
2019-02-15T15:42:44.645Z,20.03
2019-02-15T15:44:48.821Z,20.08
2019-02-15T15:45:49.071Z,19.99
2019-02-15T15:47:42.210Z,19.77
2019-02-15T15:48:42.451Z,19.56
2019-02-15T15:50:46.629Z,19.58
2019-02-15T15:51:47.082Z,19.63
2019-02-15T15:53:51.075Z,19.33
2019-02-15T15:54:51.324Z,19.22
2019-02-15T15:56:55.526Z,18.91
2019-02-15T15:57:55.772Z,18.87
2019-02-15T15:59:59.945Z,18.66
2019-02-15T16:01:00.194Z,18.57
2019-02-15T16:03:04.390Z,18.29
2019-02-15T16:04:04.640Z,18.07
2019-02-15T16:06:08.814Z,17.77
2019-02-15T16:07:09.069Z,17.55
2019-02-15T16:09:13.253Z,17.30
2019-02-15T16:10:13.549Z,17.25
2019-02-15T16:12:17.696Z,16.82
2019-02-15T16:13:17.945Z,16.64
2019-02-15T16:15:22.118Z,16.63
2019-02-15T16:16:22.369Z,16.60
2019-02-15T16:18:34.207Z,16.31
2019-02-15T16:19:26.809Z,16.41
2019-02-15T16:21:30.981Z,16.05
2019-02-15T16:22:31.230Z,15.78
2019-02-15T16:24:35.421Z,15.34
2019-02-15T16:25:35.680Z,15.19
2019-02-15T16:27:28.796Z,14.86
2019-02-15T16:28:29.041Z,14.69
2019-02-15T16:30:33.214Z,14.29
2019-02-15T16:31:33.439Z,14.00
2019-02-15T16:33:37.626Z,13.63
2019-02-15T16:34:37.873Z,13.41
2019-02-15T16:36:42.038Z,12.93
2019-02-15T16:37:42.286Z,12.71
2019-02-15T16:39:46.471Z,12.45
2019-02-15T16:40:46.716Z,12.37
2019-02-15T16:42:50.884Z,12.87
2019-02-15T16:43:51.122Z,13.08
2019-02-15T16:45:55.304Z,13.54
2019-02-15T16:46:55.546Z,13.64
2019-02-15T16:48:59.726Z,13.71
2019-02-15T16:49:59.971Z,13.63
2019-02-15T16:52:04.137Z,13.42
2019-02-15T16:53:04.374Z,13.33
2019-02-15T16:55:12.981Z,12.92
2019-02-15T16:56:08.798Z,12.93
2019-02-15T16:58:12.955Z,12.96
2019-02-15T16:59:13.197Z,12.83
2019-02-15T17:01:17.374Z,12.31
2019-02-15T17:02:17.615Z,12.14
2019-02-15T17:04:21.799Z,11.76
2019-02-15T17:05:22.036Z,11.69
2019-02-15T17:07:15.120Z,11.49
2019-02-15T17:08:15.360Z,11.44
2019-02-15T17:10:19.544Z,10.68
2019-02-15T17:11:19.784Z,10.41
2019-02-15T17:13:23.935Z,9.81
2019-02-15T17:14:24.177Z,9.74
2019-02-15T17:16:28.356Z,9.76
2019-02-15T17:17:28.590Z,9.71
2019-02-15T17:19:32.762Z,9.68
2019-02-15T17:20:33.004Z,9.66
2019-02-15T17:22:37.168Z,9.66
2019-02-15T17:23:37.397Z,9.65
2019-02-15T17:25:41.566Z,9.51
2019-02-15T17:26:41.806Z,9.42
2019-02-15T17:28:46.970Z,9.29
2019-02-15T17:29:47.205Z,9.17
2019-02-15T17:31:51.381Z,9.01
2019-02-15T17:32:51.620Z,8.94
2019-02-15T17:34:55.806Z,8.83
2019-02-15T17:35:56.045Z,8.76
2019-02-15T17:37:49.185Z,8.56
2019-02-15T17:38:49.418Z,8.47
2019-02-15T17:40:53.692Z,8.33
2019-02-15T17:41:53.973Z,8.30
2019-02-15T17:43:58.135Z,8.22
2019-02-15T17:44:58.407Z,8.10
2019-02-15T17:47:02.652Z,7.98
2019-02-15T17:48:02.921Z,7.86
2019-02-15T17:50:07.095Z,7.87
2019-02-15T17:51:07.334Z,8.86
2019-02-15T17:53:11.520Z,8.25
2019-02-15T17:54:11.808Z,7.77
2019-02-15T17:56:15.972Z,7.42
2019-02-15T17:57:16.210Z,7.28
2019-02-15T17:59:20.358Z,7.20
2019-02-15T18:00:20.604Z,7.07
2019-02-15T18:02:24.772Z,7.10
2019-02-15T18:03:25.013Z,6.91
2019-02-15T18:05:29.215Z,6.88
2019-02-15T18:06:29.452Z,6.89
2019-02-15T18:08:33.607Z,6.81
2019-02-15T18:09:33.842Z,7.06
2019-02-15T18:11:38.016Z,7.23
2019-02-15T18:12:38.257Z,7.34
2019-02-15T18:14:42.409Z,7.34
2019-02-15T18:15:42.639Z,7.37
2019-02-15T18:17:35.745Z,7.40
2019-02-15T18:18:35.972Z,7.40
2019-02-15T18:20:40.131Z,7.31
2019-02-15T18:21:40.363Z,7.48
2019-02-15T18:23:44.534Z,7.80
2019-02-15T18:24:44.785Z,7.92
2019-02-15T18:26:48.946Z,8.01
2019-02-15T18:27:49.186Z,7.87
2019-02-15T18:29:53.364Z,7.61
2019-02-15T18:30:53.570Z,7.50
2019-02-15T18:32:58.751Z,7.39
2019-02-15T18:33:58.976Z,7.31
2019-02-15T18:36:04.175Z,7.06
2019-02-15T18:37:04.406Z,6.94
2019-02-15T18:39:08.571Z,6.71
2019-02-15T18:40:08.781Z,6.49
2019-02-15T18:42:12.953Z,6.34
2019-02-15T18:43:13.193Z,6.11
2019-02-15T18:45:17.353Z,5.94
2019-02-15T18:46:17.588Z,5.81
2019-02-15T18:48:22.766Z,5.74
2019-02-15T18:49:23.025Z,6.04
2019-02-15T18:51:27.184Z,6.43
2019-02-15T18:52:27.405Z,6.49
2019-02-15T18:54:31.555Z,6.64
2019-02-15T18:55:31.789Z,6.64
2019-02-15T18:57:24.889Z,6.67
2019-02-15T18:58:25.127Z,6.64
2019-02-15T19:00:29.275Z,6.33
2019-02-15T19:01:29.516Z,6.30
2019-02-15T19:03:33.685Z,6.11
2019-02-15T19:04:33.949Z,5.97
2019-02-15T19:06:38.070Z,5.78
2019-02-15T19:07:38.303Z,5.74
2019-02-15T19:09:42.490Z,5.28
2019-02-15T19:10:42.725Z,5.28
2019-02-15T19:12:46.907Z,5.04
2019-02-15T19:13:47.131Z,4.97
2019-02-15T19:15:51.281Z,5.10
2019-02-15T19:16:51.519Z,5.27
2019-02-15T19:18:55.714Z,6.09
2019-02-15T19:19:55.953Z,6.30
2019-02-15T19:22:00.121Z,6.28
2019-02-15T19:23:00.363Z,6.17
2019-02-15T19:25:04.498Z,6.04
2019-02-15T19:26:04.730Z,6.03
2019-02-15T19:28:08.909Z,5.89
2019-02-15T19:29:09.160Z,5.85
2019-02-15T19:31:13.296Z,5.91
2019-02-15T19:32:13.531Z,5.83
2019-02-15T19:34:17.704Z,5.91
2019-02-15T19:35:17.939Z,5.83
2019-02-15T19:37:11.047Z,5.76
2019-02-15T19:38:11.277Z,5.72
2019-02-15T19:40:15.428Z,5.39
2019-02-15T19:41:15.670Z,5.21
2019-02-15T19:43:19.840Z,5.06
2019-02-15T19:44:20.075Z,5.02
2019-02-15T19:46:24.223Z,4.80
2019-02-15T19:47:24.455Z,4.66
2019-02-15T19:49:28.625Z,4.62
2019-02-15T19:50:28.859Z,4.44
2019-02-15T19:52:33.042Z,4.27
2019-02-15T19:53:33.276Z,4.29
2019-02-15T19:55:37.425Z,4.33
2019-02-15T19:56:37.664Z,4.33